createdAt,value
2022-10-26T00:01:35.776Z,98646.94
2022-10-26T00:04:04.818Z,98657.72
2022-10-26T00:06:33.354Z,98646.94
2022-10-26T00:09:01.854Z,98637.22
2022-10-26T00:11:31.743Z,98640.94
2022-10-26T00:14:00.241Z,98649.00
2022-10-26T00:16:30.110Z,98654.38
2022-10-26T00:18:58.657Z,98652.69
2022-10-26T00:21:27.397Z,98655.38
2022-10-26T00:23:55.944Z,98647.50
2022-10-26T00:26:24.655Z,98656.41
2022-10-26T00:28:57.127Z,98647.31
2022-10-26T00:31:25.925Z,98651.00
2022-10-26T00:33:55.004Z,98649.34
2022-10-26T00:36:23.808Z,98646.81
2022-10-26T00:38:52.788Z,98648.47
2022-10-26T00:41:22.822Z,98642.28
2022-10-26T00:43:52.545Z,98639.59
2022-10-26T00:46:23.869Z,98629.84
2022-10-26T00:48:54.490Z,98636.06
2022-10-26T00:51:26.869Z,98653.03
2022-10-26T00:53:55.723Z,98645.16
2022-10-26T00:56:24.160Z,98644.97
2022-10-26T00:58:52.809Z,98640.59
2022-10-26T01:01:22.680Z,98646.00
2022-10-26T01:03:51.422Z,98637.91
2022-10-26T01:06:19.915Z,98638.06
2022-10-26T01:08:48.789Z,98637.25
2022-10-26T01:11:17.305Z,98639.78
2022-10-26T01:13:45.932Z,98633.53
2022-10-26T01:16:40.720Z,98645.16
2022-10-26T01:19:55.781Z,98639.94
2022-10-26T01:22:25.047Z,98639.09
2022-10-26T01:25:13.842Z,98645.31
2022-10-26T01:27:44.966Z,98639.09
2022-10-26T01:30:28.729Z,98635.59
2022-10-26T01:33:11.715Z,98638.28
2022-10-26T01:35:43.708Z,98640.97
2022-10-26T01:38:15.949Z,98636.56
2022-10-26T01:40:47.155Z,98640.97
2022-10-26T01:43:15.813Z,98640.97
2022-10-26T01:45:47.486Z,98640.97
2022-10-26T01:48:19.177Z,98639.25
2022-10-26T01:50:53.137Z,98642.13
2022-10-26T01:53:21.902Z,98640.09
2022-10-26T01:55:51.780Z,98635.59
2022-10-26T01:59:20.182Z,98648.34
2022-10-26T02:02:32.001Z,98645.66
2022-10-26T02:05:17.134Z,98643.81
2022-10-26T02:07:52.092Z,98648.16
2022-10-26T02:10:28.521Z,98644.63
2022-10-26T02:13:02.581Z,98654.56
2022-10-26T02:15:35.930Z,98647.31
2022-10-26T02:18:09.874Z,98644.81
2022-10-26T02:20:41.937Z,98650.00
2022-10-26T02:23:10.580Z,98646.66
2022-10-26T02:25:43.474Z,98649.19
2022-10-26T02:28:13.967Z,98643.97
2022-10-26T02:30:42.645Z,98652.91
2022-10-26T02:33:12.723Z,98646.66
2022-10-26T02:35:42.698Z,98652.03
2022-10-26T02:38:12.243Z,98648.34
2022-10-26T02:40:40.875Z,98644.81
2022-10-26T02:43:13.070Z,98647.53
2022-10-26T02:45:52.196Z,98644.97
2022-10-26T02:48:22.048Z,98655.59
2022-10-26T02:50:57.710Z,98660.09
2022-10-26T02:53:28.770Z,98658.28
2022-10-26T02:55:57.424Z,98650.22
2022-10-26T02:58:29.775Z,98653.72
2022-10-26T03:00:58.487Z,98652.91
2022-10-26T03:03:28.340Z,98645.66
2022-10-26T03:05:57.117Z,98645.81
2022-10-26T03:08:25.798Z,98655.59
2022-10-26T03:10:54.626Z,98647.53
2022-10-26T03:13:23.189Z,98650.38
2022-10-26T03:15:51.960Z,98653.88
2022-10-26T03:18:20.506Z,98656.56
2022-10-26T03:20:50.481Z,98662.78
2022-10-26T03:23:18.998Z,98662.78
2022-10-26T03:25:47.649Z,98666.34
2022-10-26T03:28:16.396Z,98669.03
2022-10-26T03:30:45.025Z,98657.59
2022-10-26T03:33:13.645Z,98662.78
2022-10-26T03:35:42.131Z,98661.94
2022-10-26T03:38:15.833Z,98665.66
2022-10-26T03:40:44.739Z,98665.81
2022-10-26T03:43:13.422Z,98670.22
2022-10-26T03:45:41.942Z,98665.66
2022-10-26T03:48:10.471Z,98671.88
2022-10-26T03:50:39.012Z,98662.97
2022-10-26T03:53:07.856Z,98669.19
2022-10-26T03:55:37.811Z,98669.19
2022-10-26T03:58:06.561Z,98671.88
2022-10-26T04:00:35.209Z,98671.88
2022-10-26T04:03:03.818Z,98671.88
2022-10-26T04:05:32.384Z,98676.41
2022-10-26T04:08:03.287Z,98674.56
2022-10-26T04:10:32.051Z,98671.03
2022-10-26T04:13:01.979Z,98669.19
2022-10-26T04:15:31.061Z,98669.38
2022-10-26T04:18:00.241Z,98678.28
2022-10-26T04:20:29.095Z,98679.13
2022-10-26T04:23:01.540Z,98678.28
2022-10-26T04:25:32.832Z,98676.59
2022-10-26T04:28:03.855Z,98681.97
2022-10-26T04:30:32.905Z,98677.44
2022-10-26T04:33:01.831Z,98683.81
2022-10-26T04:35:30.878Z,98686.50
2022-10-26T04:38:00.192Z,98685.50
2022-10-26T04:40:28.692Z,98687.34
2022-10-26T04:42:57.302Z,98680.97
2022-10-26T04:45:28.704Z,98686.34
2022-10-26T04:48:02.362Z,98678.44
2022-10-26T04:50:31.116Z,98681.31
2022-10-26T04:52:59.711Z,98676.78
2022-10-26T04:55:28.462Z,98683.81
2022-10-26T04:58:00.040Z,98682.97
2022-10-26T05:00:33.139Z,98679.28
2022-10-26T05:03:02.008Z,98679.28
2022-10-26T05:05:31.518Z,98682.97
2022-10-26T05:08:00.118Z,98674.09
2022-10-26T05:10:31.674Z,98675.94
2022-10-26T05:13:00.809Z,98680.97
2022-10-26T05:15:31.030Z,98675.91
2022-10-26T05:18:01.424Z,98680.13
2022-10-26T05:20:31.453Z,98683.63
2022-10-26T05:23:01.237Z,98685.50
2022-10-26T05:25:31.195Z,98690.00
2022-10-26T05:28:00.135Z,98690.69
2022-10-26T05:30:32.376Z,98688.00
2022-10-26T05:33:03.129Z,98693.03
2022-10-26T05:35:32.317Z,98689.50
2022-10-26T05:38:02.084Z,98689.84
2022-10-26T05:40:30.755Z,98691.03
2022-10-26T05:43:02.337Z,98688.81
2022-10-26T05:45:32.414Z,98698.75
2022-10-26T05:48:02.783Z,98696.91
2022-10-26T05:50:32.060Z,98696.41
2022-10-26T05:53:01.035Z,98697.06
2022-10-26T05:55:30.768Z,98692.03
2022-10-26T05:58:00.202Z,98693.88
2022-10-26T06:00:31.850Z,98695.06
2022-10-26T06:03:10.185Z,98693.88
2022-10-26T06:05:54.038Z,98695.72
2022-10-26T06:08:24.086Z,98700.25
2022-10-26T06:10:53.898Z,98698.59
2022-10-26T06:13:23.493Z,98709.34
2022-10-26T06:16:07.641Z,98704.63
2022-10-26T06:18:44.007Z,98706.47
2022-10-26T06:21:24.534Z,98713.56
2022-10-26T06:23:56.718Z,98718.59
2022-10-26T06:26:34.498Z,98724.13
2022-10-26T06:29:18.776Z,98721.44
2022-10-26T06:31:49.359Z,98730.19
2022-10-26T06:34:24.871Z,98728.50
2022-10-26T06:39:23.643Z,98725.97
2022-10-26T06:41:52.159Z,98736.59
2022-10-26T06:44:26.059Z,98734.72
2022-10-26T06:47:01.086Z,98733.91
2022-10-26T06:49:32.590Z,98733.56
2022-10-26T06:52:02.983Z,98737.06
2022-10-26T06:54:44.278Z,98733.34
2022-10-26T06:57:13.142Z,98743.13
2022-10-26T06:59:45.231Z,98742.09
2022-10-26T07:02:15.725Z,98744.63
2022-10-26T07:04:44.720Z,98743.63
2022-10-26T07:07:15.253Z,98758.72
2022-10-26T07:09:43.776Z,98750.34
2022-10-26T07:12:12.356Z,98754.03
2022-10-26T07:14:41.160Z,98745.13
2022-10-26T07:17:10.210Z,98759.59
2022-10-26T07:19:40.892Z,98762.28
2022-10-26T07:22:09.469Z,98763.97
2022-10-26T07:24:38.022Z,98755.88
2022-10-26T07:27:06.565Z,98759.09
2022-10-26T07:29:35.603Z,98762.47
2022-10-26T07:32:04.397Z,98772.19
2022-10-26T07:34:33.443Z,98772.88
2022-10-26T07:37:03.594Z,98765.50
2022-10-26T07:39:33.040Z,98770.19
2022-10-26T07:42:01.921Z,98776.41
2022-10-26T07:44:30.712Z,98766.50
2022-10-26T07:47:00.404Z,98765.66
2022-10-26T07:49:29.160Z,98769.34
2022-10-26T07:51:57.983Z,98771.03
2022-10-26T07:54:28.202Z,98766.66
2022-10-26T07:56:57.199Z,98771.03
2022-10-26T07:59:26.222Z,98763.97
2022-10-26T08:01:55.273Z,98766.66
2022-10-26T08:04:24.105Z,98771.22
2022-10-26T08:06:53.465Z,98766.66
2022-10-26T08:09:22.322Z,98769.34
2022-10-26T08:11:52.356Z,98766.66
2022-10-26T08:14:20.921Z,98770.19
2022-10-26T08:16:52.770Z,98771.22
2022-10-26T08:19:21.555Z,98769.34
2022-10-26T08:21:50.104Z,98771.38
2022-10-26T08:24:18.745Z,98762.94
2022-10-26T08:26:47.341Z,98762.13
2022-10-26T08:29:17.259Z,98762.13
2022-10-26T08:31:45.878Z,98765.66
2022-10-26T08:34:14.434Z,98771.69
2022-10-26T08:36:43.055Z,98768.19
2022-10-26T08:39:11.705Z,98758.44
2022-10-26T08:41:43.278Z,98766.31
2022-10-26T08:44:25.547Z,98760.94
2022-10-26T08:46:56.625Z,98767.16
2022-10-26T08:49:28.293Z,98768.84
2022-10-26T08:52:01.481Z,98774.22
2022-10-26T08:54:36.950Z,98756.91
2022-10-26T08:57:14.713Z,98763.47
2022-10-26T08:59:49.047Z,98763.47
2022-10-26T09:02:18.443Z,98759.94
2022-10-26T09:04:49.978Z,98765.31
2022-10-26T09:07:41.350Z,98765.31
2022-10-26T09:12:59.530Z,98760.78
2022-10-26T09:15:36.705Z,98770.53
2022-10-26T09:18:13.598Z,98767.66
2022-10-26T09:21:03.296Z,98768.84
2022-10-26T09:23:54.540Z,98776.72
2022-10-26T09:26:33.201Z,98773.69
2022-10-26T09:29:04.594Z,98773.69
2022-10-26T09:31:43.262Z,98775.75
2022-10-26T09:34:24.227Z,98773.88
2022-10-26T09:36:56.835Z,98775.75
2022-10-26T09:39:35.524Z,98774.72
2022-10-26T09:42:09.503Z,98779.28
2022-10-26T09:44:40.385Z,98781.13
2022-10-26T09:47:15.694Z,98774.72
2022-10-26T09:49:48.694Z,98777.59
2022-10-26T09:52:17.633Z,98776.56
2022-10-26T09:54:46.215Z,98779.44
2022-10-26T09:57:15.616Z,98775.75
2022-10-26T09:59:44.185Z,98778.44
2022-10-26T10:02:36.148Z,98777.25
2022-10-26T10:05:23.167Z,98769.34
2022-10-26T10:08:18.836Z,98769.34
2022-10-26T10:11:05.147Z,98781.13
2022-10-26T10:13:34.931Z,98774.72
2022-10-26T10:16:09.510Z,98771.19
2022-10-26T10:18:40.482Z,98771.19
2022-10-26T10:21:09.130Z,98770.38
2022-10-26T10:23:38.775Z,98773.88
2022-10-26T10:26:11.092Z,98772.03
2022-10-26T10:28:39.966Z,98778.44
2022-10-26T10:31:21.714Z,98778.44
2022-10-26T10:33:53.160Z,98778.44
2022-10-26T10:36:23.305Z,98782.97
2022-10-26T10:38:53.346Z,98778.44
2022-10-26T10:41:27.096Z,98778.44
2022-10-26T10:44:04.296Z,98781.28
2022-10-26T10:46:32.936Z,98780.28
2022-10-26T10:49:08.463Z,98775.75
2022-10-26T10:51:41.032Z,98772.22
2022-10-26T10:54:22.563Z,98779.44
2022-10-26T10:56:52.889Z,98771.34
2022-10-26T10:59:42.540Z,98775.91
2022-10-26T11:03:16.687Z,98772.22
2022-10-26T11:06:06.276Z,98770.38
2022-10-26T11:08:39.321Z,98771.34
2022-10-26T11:11:10.577Z,98778.59
2022-10-26T11:13:41.435Z,98782.13
2022-10-26T11:16:14.797Z,98772.22
2022-10-26T11:18:46.951Z,98774.03
2022-10-26T11:21:24.153Z,98775.06
2022-10-26T11:23:58.106Z,98775.22
2022-10-26T11:26:31.155Z,98773.41
2022-10-26T11:29:01.270Z,98769.00
2022-10-26T11:31:32.432Z,98783.28
2022-10-26T11:34:15.233Z,98780.78
2022-10-26T11:36:47.253Z,98783.28
2022-10-26T11:39:21.642Z,98777.09
2022-10-26T11:41:52.506Z,98776.09
2022-10-26T11:44:24.783Z,98774.22
2022-10-26T11:46:55.747Z,98773.41
2022-10-26T11:49:27.647Z,98776.94
2022-10-26T11:52:01.130Z,98777.75
2022-10-26T11:54:32.348Z,98777.75
2022-10-26T11:57:01.043Z,98768.66
2022-10-26T11:59:33.616Z,98768.50
2022-10-26T12:02:05.199Z,98764.97
2022-10-26T12:04:36.808Z,98763.47
2022-10-26T12:07:12.057Z,98769.69
2022-10-26T12:09:40.972Z,98770.53
2022-10-26T12:12:13.486Z,98768.84
2022-10-26T12:14:44.680Z,98770.53
2022-10-26T12:17:16.421Z,98771.34
2022-10-26T12:19:48.299Z,98763.47
2022-10-26T12:22:19.627Z,98759.75
2022-10-26T12:24:48.860Z,98768.03
2022-10-26T12:27:33.869Z,98773.41
2022-10-26T12:30:32.062Z,98772.72
2022-10-26T12:33:02.071Z,98770.03
2022-10-26T12:35:45.045Z,98777.91
2022-10-26T12:38:57.886Z,98774.59
2022-10-26T12:41:27.224Z,98764.66
2022-10-26T12:44:12.703Z,98770.03
2022-10-26T12:46:42.184Z,98761.78
2022-10-26T12:50:10.309Z,98765.50
2022-10-26T12:52:48.860Z,98761.97
2022-10-26T12:55:57.470Z,98755.75
2022-10-26T12:59:10.447Z,98768.34
2022-10-26T13:02:25.170Z,98755.91
2022-10-26T13:05:30.834Z,98751.34
2022-10-26T13:08:03.374Z,98761.28
2022-10-26T13:10:34.876Z,98763.13
2022-10-26T13:13:05.364Z,98757.56
2022-10-26T13:15:38.899Z,98761.28
2022-10-26T13:18:10.913Z,98763.81
2022-10-26T13:20:53.394Z,98758.44
2022-10-26T13:23:25.589Z,98760.94
2022-10-26T13:26:06.696Z,98752.19
2022-10-26T13:28:48.560Z,98761.13
2022-10-26T13:31:54.804Z,98762.13
2022-10-26T13:34:24.132Z,98761.28
2022-10-26T13:36:55.422Z,98765.66
2022-10-26T13:39:25.944Z,98763.97
2022-10-26T13:41:56.356Z,98766.66
2022-10-26T13:44:27.777Z,98763.13
2022-10-26T13:46:59.486Z,98766.66
2022-10-26T13:49:31.480Z,98771.22
2022-10-26T13:52:03.026Z,98779.28
2022-10-26T13:54:36.358Z,98774.75
2022-10-26T13:57:15.194Z,98775.75
2022-10-26T13:59:45.733Z,98771.38
2022-10-26T14:02:21.713Z,98769.50
2022-10-26T14:04:53.425Z,98773.91
2022-10-26T14:07:24.913Z,98777.44
2022-10-26T14:09:55.245Z,98775.75
2022-10-26T14:12:25.693Z,98770.38
2022-10-26T14:14:54.414Z,98772.03
2022-10-26T14:17:24.270Z,98772.88
2022-10-26T14:19:53.018Z,98774.75
2022-10-26T14:22:23.990Z,98768.53
2022-10-26T14:27:33.575Z,98781.97
2022-10-26T14:30:22.148Z,98778.44
2022-10-26T14:32:52.242Z,98774.06
2022-10-26T14:35:21.829Z,98782.81
2022-10-26T14:37:52.683Z,98789.03
2022-10-26T14:40:23.138Z,98781.78
2022-10-26T14:42:55.153Z,98789.88
2022-10-26T14:45:46.861Z,98785.34
2022-10-26T14:48:22.675Z,98791.56
2022-10-26T14:51:16.747Z,98793.41
2022-10-26T14:53:50.303Z,98791.56
2022-10-26T14:56:23.857Z,98790.72
2022-10-26T14:58:54.526Z,98794.25
2022-10-26T15:01:35.996Z,98802.66
2022-10-26T15:04:06.605Z,98792.75
2022-10-26T15:06:42.539Z,98797.09
2022-10-26T15:09:34.601Z,98805.16
2022-10-26T15:12:04.095Z,98804.34
2022-10-26T15:14:34.469Z,98803.50
2022-10-26T15:17:03.210Z,98803.31
2022-10-26T15:19:31.812Z,98811.72
2022-10-26T15:22:00.346Z,98811.22
2022-10-26T15:24:37.667Z,98813.09
2022-10-26T15:27:14.590Z,98815.78
2022-10-26T15:29:45.674Z,98813.09
2022-10-26T15:32:27.582Z,98807.72
2022-10-26T15:35:30.574Z,98813.44
2022-10-26T15:38:01.292Z,98825.03
2022-10-26T15:40:30.701Z,98829.38
2022-10-26T15:43:01.661Z,98821.16
2022-10-26T15:45:34.993Z,98821.16
2022-10-26T15:48:20.469Z,98816.59
2022-10-26T15:50:49.153Z,98828.41
2022-10-26T15:53:21.543Z,98819.47
2022-10-26T15:55:50.241Z,98838.13
2022-10-26T15:58:18.739Z,98832.91
2022-10-26T16:00:48.642Z,98828.41
2022-10-26T16:03:20.217Z,98826.34
2022-10-26T16:05:48.866Z,98827.22
2022-10-26T16:08:18.513Z,98834.44
2022-10-26T16:10:48.424Z,98837.13
2022-10-26T16:13:17.320Z,98841.66
2022-10-26T16:15:46.331Z,98838.81
2022-10-26T16:18:16.784Z,98839.66
2022-10-26T16:20:46.917Z,98841.31
2022-10-26T16:23:15.735Z,98840.47
2022-10-26T16:25:45.647Z,98846.69
2022-10-26T16:28:18.038Z,98843.03
2022-10-26T16:30:46.624Z,98856.28
2022-10-26T16:33:16.580Z,98854.63
2022-10-26T16:35:47.120Z,98858.97
2022-10-26T16:38:15.653Z,98853.44
2022-10-26T16:40:45.178Z,98854.44
2022-10-26T16:43:16.892Z,98851.75
2022-10-26T16:45:45.991Z,98851.75
2022-10-26T16:48:16.197Z,98853.44
2022-10-26T16:50:44.832Z,98860.50
2022-10-26T16:53:13.381Z,98857.81
2022-10-26T16:58:15.301Z,98862.00
2022-10-26T17:00:43.879Z,98871.94
2022-10-26T17:03:12.384Z,98864.69
2022-10-26T17:05:42.414Z,98878.34
2022-10-26T17:08:11.063Z,98871.94
2022-10-26T17:10:40.079Z,98866.72
2022-10-26T17:13:09.005Z,98878.34
2022-10-26T17:15:37.503Z,98880.16
2022-10-26T17:18:07.900Z,98882.03
2022-10-26T17:20:36.490Z,98881.03
2022-10-26T17:23:06.530Z,98881.88
2022-10-26T17:25:38.454Z,98886.41
2022-10-26T17:28:07.158Z,98880.16
2022-10-26T17:30:36.168Z,98883.72
2022-10-26T17:33:04.893Z,98890.63
2022-10-26T17:35:34.110Z,98902.56
2022-10-26T17:38:02.801Z,98893.47
2022-10-26T17:40:33.199Z,98900.38
2022-10-26T17:43:01.731Z,98918.53
2022-10-26T17:45:30.242Z,98919.53
2022-10-26T17:47:58.909Z,98911.63
2022-10-26T17:50:27.612Z,98917.84
2022-10-26T17:52:56.795Z,98917.00
2022-10-26T17:55:25.277Z,98923.22
2022-10-26T17:57:55.586Z,98925.09
2022-10-26T18:00:24.124Z,98925.75
2022-10-26T18:02:52.852Z,98917.69
2022-10-26T18:05:21.430Z,98924.94
2022-10-26T18:07:50.247Z,98929.47
2022-10-26T18:10:37.037Z,98940.25
2022-10-26T18:13:07.744Z,98931.31
2022-10-26T18:15:37.367Z,98947.44
2022-10-26T18:18:06.274Z,98944.75
2022-10-26T18:20:34.778Z,98948.63
2022-10-26T18:23:06.503Z,98950.13
2022-10-26T18:25:36.245Z,98947.63
2022-10-26T18:28:05.587Z,98955.72
2022-10-26T18:30:35.686Z,98955.03
2022-10-26T18:33:04.215Z,98954.00
2022-10-26T18:35:33.548Z,98950.47
2022-10-26T18:38:02.129Z,98952.34
2022-10-26T18:40:30.865Z,98961.59
2022-10-26T18:42:59.481Z,98965.78
2022-10-26T18:45:27.965Z,98957.72
2022-10-26T18:47:58.044Z,98960.06
2022-10-26T18:50:30.251Z,98962.06
2022-10-26T18:52:58.980Z,98964.94
2022-10-26T18:55:27.470Z,98962.59
2022-10-26T18:57:56.064Z,98964.28
2022-10-26T19:00:24.611Z,98970.34
2022-10-26T19:02:53.658Z,98967.78
2022-10-26T19:05:24.227Z,98977.03
2022-10-26T19:07:53.325Z,98981.59
2022-10-26T19:10:21.932Z,98982.78
2022-10-26T19:12:50.664Z,98972.84
2022-10-26T19:15:19.456Z,98981.09
2022-10-26T19:17:47.963Z,98980.25
2022-10-26T19:20:16.848Z,98990.84
2022-10-26T19:22:46.832Z,98992.69
2022-10-26T19:25:15.557Z,98987.31
2022-10-26T19:27:45.962Z,98998.06
2022-10-26T19:30:18.094Z,98994.56
2022-10-26T19:32:46.624Z,98998.06
2022-10-26T19:35:15.360Z,99001.59
2022-10-26T19:37:44.224Z,99004.28
2022-10-26T19:40:14.524Z,99003.47
2022-10-26T19:42:43.071Z,99009.84
2022-10-26T19:45:12.334Z,99012.56
2022-10-26T19:47:41.148Z,99009.53
2022-10-26T19:50:10.197Z,99007.66
2022-10-26T19:52:39.907Z,99016.59
2022-10-26T19:55:09.688Z,99014.72
2022-10-26T19:57:39.624Z,99024.66
2022-10-26T20:00:10.485Z,99021.13
2022-10-26T20:02:39.032Z,99026.66
2022-10-26T20:05:08.480Z,99031.75
2022-10-26T20:07:37.025Z,99035.41
2022-10-26T20:10:06.457Z,99024.66
2022-10-26T20:12:35.032Z,99036.59
2022-10-26T20:15:05.892Z,99038.09
2022-10-26T20:17:36.600Z,99036.59
2022-10-26T20:20:05.557Z,99034.72
2022-10-26T20:22:34.315Z,99039.47
2022-10-26T20:25:02.931Z,99043.13
2022-10-26T20:27:31.601Z,99049.22
2022-10-26T20:30:00.142Z,99050.22
2022-10-26T20:32:30.173Z,99043.66
2022-10-26T20:34:58.680Z,99047.34
2022-10-26T20:37:28.046Z,99048.19
2022-10-26T20:39:57.575Z,99049.22
2022-10-26T20:42:27.780Z,99051.91
2022-10-26T20:45:02.715Z,99051.91
2022-10-26T20:47:33.714Z,99057.28
2022-10-26T20:50:03.036Z,99050.22
2022-10-26T20:52:38.405Z,99063.69
2022-10-26T20:55:12.345Z,99065.69
2022-10-26T20:57:40.985Z,99062.81
2022-10-26T21:00:12.398Z,99056.44
2022-10-26T21:02:42.354Z,99061.63
2022-10-26T21:05:11.126Z,99052.22
2022-10-26T21:07:39.641Z,99055.59
2022-10-26T21:10:09.101Z,99060.13
2022-10-26T21:12:37.936Z,99061.00
2022-10-26T21:15:08.739Z,99059.28
2022-10-26T21:17:37.358Z,99061.97
2022-10-26T21:20:08.985Z,99071.91
2022-10-26T21:22:37.774Z,99072.75
2022-10-26T21:25:07.368Z,99068.38
2022-10-26T21:27:35.984Z,99071.06
2022-10-26T21:30:05.227Z,99073.75
2022-10-26T21:32:33.739Z,99075.59
2022-10-26T21:35:02.263Z,99081.97
2022-10-26T21:37:32.087Z,99076.59
2022-10-26T21:40:00.795Z,99073.75
2022-10-26T21:42:29.421Z,99076.44
2022-10-26T21:44:57.958Z,99072.75
2022-10-26T21:47:26.461Z,99077.97
2022-10-26T21:49:55.195Z,99070.88
2022-10-26T21:52:23.723Z,99071.22
2022-10-26T21:54:54.011Z,99069.50
2022-10-26T21:57:22.555Z,99069.50
2022-10-26T21:59:51.275Z,99070.38
2022-10-26T22:02:19.940Z,99080.16
2022-10-26T22:04:48.761Z,99076.25
2022-10-26T22:07:17.773Z,99078.13
2022-10-26T22:10:00.451Z,99079.13
2022-10-26T22:12:37.153Z,99079.13
2022-10-26T22:15:07.216Z,99082.66
2022-10-26T22:17:39.631Z,99073.75
2022-10-26T22:20:09.820Z,99078.31
2022-10-26T22:22:38.400Z,99078.31
2022-10-26T22:25:08.207Z,99072.09
2022-10-26T22:27:38.122Z,99076.25
2022-10-26T22:30:08.865Z,99072.75
2022-10-26T22:32:37.433Z,99080.81
2022-10-26T22:37:56.245Z,99081.50
2022-10-26T22:40:24.970Z,99084.19
2022-10-26T22:42:54.981Z,99088.88
2022-10-26T22:45:23.611Z,99090.75
2022-10-26T22:47:52.139Z,99090.06
2022-10-26T22:50:20.643Z,99102.66
2022-10-26T22:52:49.459Z,99100.13
2022-10-26T22:55:18.109Z,99095.72
2022-10-26T22:57:47.049Z,99096.75
2022-10-26T23:00:18.250Z,99092.19
2022-10-26T23:02:47.174Z,99095.59
2022-10-26T23:05:15.909Z,99095.59
2022-10-26T23:07:44.475Z,99097.59
2022-10-26T23:10:13.038Z,99100.41
2022-10-26T23:12:41.905Z,99098.75
2022-10-26T23:15:11.612Z,99095.91
2022-10-26T23:17:41.726Z,99090.53
2022-10-26T23:20:12.004Z,99095.91
2022-10-26T23:22:40.717Z,99088.00
2022-10-26T23:25:10.272Z,99098.75
2022-10-26T23:27:38.942Z,99096.22
2022-10-26T23:30:09.686Z,99101.59
2022-10-26T23:32:38.243Z,99096.22
2022-10-26T23:35:09.089Z,99103.28
2022-10-26T23:37:37.699Z,99102.59
2022-10-26T23:40:08.175Z,99093.38
2022-10-26T23:42:36.878Z,99093.53
2022-10-26T23:45:06.337Z,99095.22
2022-10-26T23:47:34.947Z,99094.53
2022-10-26T23:50:03.523Z,99091.84
2022-10-26T23:52:33.456Z,99094.53
2022-10-26T23:55:02.150Z,99106.13
2022-10-26T23:57:30.781Z,99104.28
2022-10-26T23:59:59.446Z,99109.00
